Albion, Maine
Current Conditions -  °F | °C
As of 5:35 PM on Monday 22 Dec 2014 (Local Time) from KWVL Reporting Station
Overcast Overcast  
Wind Chill: -1°   Ceiling: 5000
Heat Index:   Visibility: 10mi
Dew Point: -4°   Wind: 5mph
Humidity: 70%   Direction: 50°NE
Pressure: 30.36"   Gusts: NA
Location:  44.53°N, 69.44°W
Report Text: KWVL 222235Z 05004KT 10SM FEW015 OVC050 01/M04 A3036 RMK AO1
Loading
Personal Weather Stations






























Interactive Weather Map New forecast layout! Learn more

10-Day Weather Forecast

Advertisements
Track Severe Weather on mobile